createdAt,value
2023-04-10T00:01:24.091Z,7.77
2023-04-10T00:03:52.122Z,7.81
2023-04-10T00:06:19.601Z,7.87
2023-04-10T00:08:46.826Z,7.82
2023-04-10T00:11:14.171Z,7.99
2023-04-10T00:13:41.386Z,8.22
2023-04-10T00:16:08.778Z,8.21
2023-04-10T00:18:36.135Z,8.21
2023-04-10T00:21:04.231Z,8.14
2023-04-10T00:23:32.796Z,8.05
2023-04-10T00:26:00.153Z,7.67
2023-04-10T00:28:27.703Z,7.52
2023-04-10T00:30:54.833Z,7.75
2023-04-10T00:33:22.074Z,7.53
2023-04-10T00:35:49.886Z,7.48
2023-04-10T00:38:17.466Z,7.31
2023-04-10T00:40:44.693Z,7.25
2023-04-10T00:43:12.434Z,7.29
2023-04-10T00:45:40.462Z,7.21
2023-04-10T00:48:08.266Z,7.15
2023-04-10T00:50:35.525Z,7.28
2023-04-10T00:53:03.726Z,7.39
2023-04-10T00:55:31.243Z,7.45
2023-04-10T00:57:58.825Z,7.44
2023-04-10T01:00:26.208Z,7.35
2023-04-10T01:02:55.679Z,7.44
2023-04-10T01:05:24.041Z,7.41
2023-04-10T01:08:15.875Z,7.58
2023-04-10T01:11:30.907Z,7.75
2023-04-10T01:14:16.544Z,7.78
2023-04-10T01:16:54.293Z,7.60
2023-04-10T01:20:01.835Z,7.69
2023-04-10T01:22:35.923Z,7.76
2023-04-10T01:25:40.579Z,7.74
2023-04-10T01:28:33.498Z,7.42
2023-04-10T01:31:02.761Z,7.57
2023-04-10T01:33:51.053Z,7.46
2023-04-10T01:36:28.202Z,7.38
2023-04-10T01:38:57.937Z,7.32
2023-04-10T01:41:26.658Z,7.48
2023-04-10T01:43:55.864Z,7.67
2023-04-10T01:46:24.792Z,7.56
2023-04-10T01:48:54.097Z,7.79
2023-04-10T01:51:22.396Z,7.48
2023-04-10T01:53:51.722Z,7.32
2023-04-10T01:56:24.086Z,7.41
2023-04-10T01:58:51.688Z,7.49
2023-04-10T02:01:29.537Z,7.70
2023-04-10T02:03:59.391Z,7.59
2023-04-10T02:06:37.622Z,7.68
2023-04-10T02:09:46.498Z,7.80
2023-04-10T02:12:21.691Z,7.75
2023-04-10T02:14:50.808Z,7.89
2023-04-10T02:17:26.720Z,7.73
2023-04-10T02:19:57.222Z,7.76
2023-04-10T02:22:25.856Z,7.80
2023-04-10T02:24:54.223Z,7.52
2023-04-10T02:27:34.076Z,7.59
2023-04-10T02:30:03.628Z,7.55
2023-04-10T02:32:33.730Z,7.57
2023-04-10T02:35:02.800Z,7.57
2023-04-10T02:37:31.464Z,7.81
2023-04-10T02:40:01.532Z,7.80
2023-04-10T02:42:35.899Z,7.65
2023-04-10T02:45:03.626Z,7.59
2023-04-10T02:47:36.798Z,7.52
2023-04-10T02:50:04.350Z,7.81
2023-04-10T02:52:35.848Z,7.81
2023-04-10T02:55:03.537Z,7.56
2023-04-10T02:57:36.237Z,7.76
2023-04-10T03:00:05.309Z,7.51
2023-04-10T03:02:53.733Z,7.75
2023-04-10T03:05:21.772Z,7.44
2023-04-10T03:07:49.073Z,7.30
2023-04-10T03:10:16.570Z,7.33
2023-04-10T03:12:43.853Z,7.27
2023-04-10T03:15:11.943Z,7.45
2023-04-10T03:17:39.209Z,7.36
2023-04-10T03:20:08.734Z,7.57
2023-04-10T03:22:36.553Z,7.34
2023-04-10T03:25:03.975Z,7.31
2023-04-10T03:27:34.743Z,7.21
2023-04-10T03:30:03.128Z,7.17
2023-04-10T03:32:39.106Z,7.41
2023-04-10T03:35:07.221Z,7.37
2023-04-10T03:37:34.454Z,7.29
2023-04-10T03:40:01.684Z,7.60
2023-04-10T03:42:30.046Z,7.78
2023-04-10T03:44:57.240Z,7.82
2023-04-10T03:47:24.607Z,7.90
2023-04-10T03:49:53.110Z,7.77
2023-04-10T03:52:20.610Z,7.96
2023-04-10T03:54:48.175Z,7.87
2023-04-10T03:57:24.549Z,7.87
2023-04-10T03:59:55.694Z,7.82
2023-04-10T04:02:23.346Z,7.82
2023-04-10T04:04:50.889Z,7.79
2023-04-10T04:07:41.104Z,7.82
2023-04-10T04:10:20.844Z,7.53
2023-04-10T04:13:02.974Z,7.76
2023-04-10T04:15:43.526Z,7.40
2023-04-10T04:18:29.118Z,7.28
2023-04-10T04:21:16.434Z,7.14
2023-04-10T04:24:00.046Z,7.52
2023-04-10T04:26:47.492Z,7.49
2023-04-10T04:29:52.925Z,7.49
2023-04-10T04:32:26.120Z,7.78
2023-04-10T04:35:04.596Z,7.93
2023-04-10T04:38:07.408Z,7.97
2023-04-10T04:40:57.847Z,7.82
2023-04-10T04:43:41.824Z,7.99
2023-04-10T04:46:30.170Z,8.08
2023-04-10T04:49:15.996Z,7.96
2023-04-10T04:52:18.733Z,7.94
2023-04-10T04:54:58.149Z,7.96
2023-04-10T04:57:45.662Z,7.79
2023-04-10T05:00:26.296Z,7.76
2023-04-10T05:02:53.720Z,7.78
2023-04-10T05:05:33.284Z,7.77
2023-04-10T05:08:27.208Z,7.85
2023-04-10T05:11:00.599Z,7.93
2023-04-10T05:14:03.339Z,7.65
2023-04-10T05:16:42.073Z,7.59
2023-04-10T05:19:21.476Z,7.67
2023-04-10T05:22:14.038Z,7.99
2023-04-10T05:24:44.319Z,8.07
2023-04-10T05:27:29.100Z,7.97
2023-04-10T05:30:19.738Z,7.86
2023-04-10T05:33:07.688Z,7.86
2023-04-10T05:36:05.550Z,7.83
2023-04-10T05:38:52.836Z,7.50
2023-04-10T05:41:46.535Z,7.71
2023-04-10T05:44:26.249Z,7.58
2023-04-10T05:47:06.314Z,7.68
2023-04-10T05:50:12.029Z,8.05
2023-04-10T05:52:55.633Z,8.07
2023-04-10T05:55:41.390Z,7.84
2023-04-10T05:58:39.020Z,7.84
2023-04-10T06:01:08.866Z,7.96
2023-04-10T06:03:59.598Z,8.08
2023-04-10T06:06:27.243Z,8.06
2023-04-10T06:08:54.738Z,7.96
2023-04-10T06:11:22.696Z,7.63
2023-04-10T06:13:53.726Z,7.88
2023-04-10T06:16:26.838Z,8.15
2023-04-10T06:18:55.325Z,8.31
2023-04-10T06:21:22.713Z,8.23
2023-04-10T06:23:50.224Z,7.97
2023-04-10T06:26:19.100Z,7.92
2023-04-10T06:28:46.768Z,8.34
2023-04-10T06:31:16.165Z,8.28
2023-04-10T06:33:44.259Z,8.54
2023-04-10T06:36:11.692Z,8.26
2023-04-10T06:38:45.291Z,7.70
2023-04-10T06:41:13.741Z,7.99
2023-04-10T06:43:41.202Z,7.93
2023-04-10T06:46:08.848Z,8.04
2023-04-10T06:48:36.184Z,8.13
2023-04-10T06:51:04.048Z,7.94
2023-04-10T06:53:31.486Z,7.99
2023-04-10T06:56:01.566Z,8.33
2023-04-10T06:58:30.903Z,8.40
2023-04-10T07:00:59.033Z,8.64
2023-04-10T07:03:26.431Z,8.74
2023-04-10T07:05:53.798Z,8.99
2023-04-10T07:08:21.092Z,9.21
2023-04-10T07:10:48.457Z,9.29
2023-04-10T07:13:15.765Z,9.06
2023-04-10T07:15:43.081Z,8.78
2023-04-10T07:18:10.384Z,8.72
2023-04-10T07:20:38.317Z,8.47
2023-04-10T07:23:05.930Z,8.78
2023-04-10T07:25:34.332Z,8.77
2023-04-10T07:28:01.643Z,8.98
2023-04-10T07:30:28.886Z,8.99
2023-04-10T07:32:56.385Z,9.17
2023-04-10T07:35:23.846Z,9.23
2023-04-10T07:37:52.712Z,9.52
2023-04-10T07:40:19.970Z,9.46
2023-04-10T07:42:47.651Z,9.36
2023-04-10T07:45:15.038Z,8.97
2023-04-10T07:47:42.501Z,9.42
2023-04-10T07:50:09.984Z,9.28
2023-04-10T07:52:37.411Z,8.52
2023-04-10T07:55:05.365Z,8.89
2023-04-10T07:57:32.656Z,8.67
2023-04-10T07:59:59.904Z,8.75
2023-04-10T08:02:27.227Z,8.62
2023-04-10T08:04:54.847Z,8.64
2023-04-10T08:07:22.658Z,8.36
2023-04-10T08:09:49.913Z,8.33
2023-04-10T08:12:17.764Z,8.44
2023-04-10T08:14:45.323Z,8.61
2023-04-10T08:17:15.003Z,8.49
2023-04-10T08:19:43.549Z,8.85
2023-04-10T08:22:11.214Z,8.86
2023-04-10T08:24:38.632Z,8.98
2023-04-10T08:27:05.913Z,8.87
2023-04-10T08:29:33.091Z,8.72
2023-04-10T08:32:01.254Z,8.26
2023-04-10T08:34:28.770Z,8.35
2023-04-10T08:36:57.645Z,8.47
2023-04-10T08:39:25.036Z,8.76
2023-04-10T08:41:52.521Z,8.61
2023-04-10T08:44:19.816Z,8.73
2023-04-10T08:46:48.684Z,8.47
2023-04-10T08:49:45.999Z,8.53
2023-04-10T08:52:25.034Z,8.98
2023-04-10T08:54:56.333Z,9.20
2023-04-10T08:57:24.310Z,8.87
2023-04-10T08:59:52.041Z,9.16
2023-04-10T09:02:20.354Z,9.42
2023-04-10T09:04:55.403Z,9.30
2023-04-10T09:07:23.527Z,8.92
2023-04-10T09:09:50.961Z,8.82
2023-04-10T09:12:18.203Z,9.11
2023-04-10T09:14:45.604Z,9.11
2023-04-10T09:17:24.783Z,8.92
2023-04-10T09:19:56.349Z,9.38
2023-04-10T09:22:36.547Z,8.99
2023-04-10T09:25:05.156Z,9.50
2023-04-10T09:27:35.698Z,9.51
2023-04-10T09:30:03.788Z,9.67
2023-04-10T09:32:46.705Z,9.79
2023-04-10T09:35:16.397Z,9.99
2023-04-10T09:37:46.556Z,9.42
2023-04-10T09:40:21.757Z,9.28
2023-04-10T09:42:49.122Z,8.84
2023-04-10T09:45:20.248Z,9.12
2023-04-10T09:48:08.337Z,8.99
2023-04-10T09:50:41.210Z,9.22
2023-04-10T09:53:11.451Z,9.51
2023-04-10T09:55:39.608Z,10.03
2023-04-10T09:58:07.827Z,10.06
2023-04-10T10:00:43.751Z,10.07
2023-04-10T10:03:21.128Z,10.04
2023-04-10T10:05:52.782Z,10.12
2023-04-10T10:08:21.612Z,10.11
2023-04-10T10:10:53.765Z,10.09
2023-04-10T10:13:54.985Z,9.73
2023-04-10T10:16:50.030Z,9.84
2023-04-10T10:19:37.397Z,10.19
2023-04-10T10:22:05.649Z,10.45
2023-04-10T10:24:35.021Z,10.25
2023-04-10T10:27:04.559Z,9.81
2023-04-10T10:29:34.924Z,9.91
2023-04-10T10:32:05.993Z,10.28
2023-04-10T10:34:33.904Z,10.27
2023-04-10T10:37:02.708Z,10.39
2023-04-10T10:39:47.920Z,9.55
2023-04-10T10:42:53.401Z,9.44
2023-04-10T10:45:38.148Z,9.56
2023-04-10T10:48:07.453Z,9.95
2023-04-10T10:50:58.981Z,9.70
2023-04-10T10:53:36.841Z,9.82
2023-04-10T10:56:19.336Z,9.52
2023-04-10T10:58:56.306Z,9.19
2023-04-10T11:01:24.215Z,9.40
2023-04-10T11:03:51.800Z,9.66
2023-04-10T11:06:50.182Z,10.25
2023-04-10T11:09:48.685Z,10.74
2023-04-10T11:12:19.330Z,10.72
2023-04-10T11:14:59.271Z,10.62
2023-04-10T11:17:51.792Z,10.72
2023-04-10T11:20:27.460Z,10.90
2023-04-10T11:23:12.735Z,10.74
2023-04-10T11:25:52.068Z,11.08
2023-04-10T11:28:41.169Z,10.63
2023-04-10T11:31:37.912Z,10.86
2023-04-10T11:34:10.703Z,11.08
2023-04-10T11:36:44.774Z,11.05
2023-04-10T11:39:20.716Z,11.18
2023-04-10T11:41:52.653Z,11.09
2023-04-10T11:44:25.930Z,11.12
2023-04-10T11:46:54.401Z,11.04
2023-04-10T11:49:28.182Z,11.04
2023-04-10T11:51:55.999Z,10.81
2023-04-10T11:54:28.625Z,10.51
2023-04-10T11:57:13.109Z,10.84
2023-04-10T11:59:40.814Z,10.86
2023-04-10T12:02:16.051Z,10.95
2023-04-10T12:04:44.649Z,10.95
2023-04-10T12:07:12.188Z,11.07
2023-04-10T12:09:39.581Z,11.02
2023-04-10T12:12:08.366Z,10.89
2023-04-10T12:14:39.575Z,10.85
2023-04-10T12:17:10.108Z,10.56
2023-04-10T12:19:39.468Z,10.81
2023-04-10T12:22:07.825Z,10.77
2023-04-10T12:24:49.657Z,10.81
2023-04-10T12:27:27.077Z,11.10
2023-04-10T12:29:58.096Z,11.13
2023-04-10T12:32:27.768Z,11.06
2023-04-10T12:34:58.370Z,11.31
2023-04-10T12:37:46.678Z,11.53
2023-04-10T12:40:14.949Z,11.36
2023-04-10T12:42:43.546Z,11.50
2023-04-10T12:45:13.958Z,11.61
2023-04-10T12:47:52.628Z,11.99
2023-04-10T12:50:21.254Z,11.73
2023-04-10T12:53:09.433Z,11.38
2023-04-10T12:55:37.614Z,11.35
2023-04-10T12:58:20.757Z,11.64
2023-04-10T13:00:48.578Z,11.83
2023-04-10T13:03:16.425Z,11.64
2023-04-10T13:05:44.621Z,11.91
2023-04-10T13:08:12.222Z,11.94
2023-04-10T13:10:40.647Z,11.39
2023-04-10T13:13:08.500Z,11.34
2023-04-10T13:15:35.820Z,11.51
2023-04-10T13:18:05.760Z,11.84
2023-04-10T13:20:37.963Z,11.95
2023-04-10T13:23:06.033Z,11.91
2023-04-10T13:25:37.036Z,11.85
2023-04-10T13:28:10.164Z,11.72
2023-04-10T13:30:42.477Z,12.13
2023-04-10T13:33:10.426Z,11.79
2023-04-10T13:35:40.140Z,11.88
2023-04-10T13:38:09.438Z,12.17
2023-04-10T13:40:36.967Z,12.06
2023-04-10T13:43:06.472Z,12.73
2023-04-10T13:45:34.958Z,12.93
2023-04-10T13:48:02.499Z,13.11
2023-04-10T13:50:30.038Z,13.52
2023-04-10T13:52:57.305Z,13.22
2023-04-10T13:55:24.697Z,13.34
2023-04-10T13:57:52.396Z,13.00
2023-04-10T14:00:19.709Z,13.19
2023-04-10T14:02:47.081Z,13.34
2023-04-10T14:05:14.548Z,13.43
2023-04-10T14:07:41.836Z,13.39
2023-04-10T14:10:09.952Z,12.92
2023-04-10T14:12:37.916Z,12.92
2023-04-10T14:15:06.046Z,12.74
2023-04-10T14:17:34.066Z,12.22
2023-04-10T14:20:01.820Z,12.17
2023-04-10T14:22:30.356Z,12.20
2023-04-10T14:25:09.259Z,12.36
2023-04-10T14:27:39.522Z,11.94
2023-04-10T14:30:07.862Z,12.63
2023-04-10T14:32:35.521Z,12.80
2023-04-10T14:35:02.840Z,12.81
2023-04-10T14:37:30.106Z,12.58
2023-04-10T14:39:57.394Z,13.11
2023-04-10T14:42:24.818Z,13.09
2023-04-10T14:44:52.103Z,12.94
2023-04-10T14:47:19.495Z,13.07
2023-04-10T14:49:46.739Z,12.71
2023-04-10T14:52:14.087Z,13.10
2023-04-10T14:54:41.386Z,13.41
2023-04-10T14:57:09.885Z,13.50
2023-04-10T14:59:37.285Z,13.86
2023-04-10T15:02:04.697Z,13.81
2023-04-10T15:04:32.145Z,13.79
2023-04-10T15:06:59.494Z,13.47
2023-04-10T15:09:27.524Z,13.38
2023-04-10T15:11:56.944Z,12.93
2023-04-10T15:14:24.264Z,12.92
2023-04-10T15:16:53.976Z,13.11
2023-04-10T15:19:21.611Z,13.33
2023-04-10T15:21:48.968Z,13.02
2023-04-10T15:24:16.300Z,13.15
2023-04-10T15:26:45.881Z,12.97
2023-04-10T15:29:14.003Z,13.32
2023-04-10T15:31:41.706Z,13.15
2023-04-10T15:34:10.443Z,13.26
2023-04-10T15:36:37.779Z,13.30
2023-04-10T15:39:05.320Z,13.41
2023-04-10T15:41:33.240Z,13.21
2023-04-10T15:44:00.697Z,12.78
2023-04-10T15:46:29.179Z,12.91
2023-04-10T15:48:56.452Z,12.87
2023-04-10T15:51:23.700Z,12.68
2023-04-10T15:53:51.094Z,12.51
2023-04-10T15:56:18.258Z,12.46
2023-04-10T15:58:45.529Z,12.73
2023-04-10T16:01:12.837Z,12.44
2023-04-10T16:03:40.908Z,12.43
2023-04-10T16:06:08.858Z,11.94
2023-04-10T16:08:36.265Z,12.26
2023-04-10T16:11:03.770Z,12.23
2023-04-10T16:13:31.108Z,12.32
2023-04-10T16:15:58.468Z,12.33
2023-04-10T16:18:25.828Z,12.31
2023-04-10T16:20:53.200Z,12.45
2023-04-10T16:23:20.568Z,12.26
2023-04-10T16:25:47.828Z,12.23
2023-04-10T16:28:15.123Z,12.22
2023-04-10T16:30:42.443Z,12.00
2023-04-10T16:33:09.832Z,12.09
2023-04-10T16:35:37.121Z,11.97
2023-04-10T16:38:04.396Z,12.20
2023-04-10T16:40:33.022Z,11.95
2023-04-10T16:43:02.079Z,11.97
2023-04-10T16:45:29.762Z,11.58
2023-04-10T16:47:57.068Z,11.72
2023-04-10T16:50:24.361Z,11.76
2023-04-10T16:52:51.681Z,11.75
2023-04-10T16:55:18.987Z,11.43
2023-04-10T16:57:46.695Z,11.40
2023-04-10T17:00:14.493Z,11.03
2023-04-10T17:02:43.139Z,10.78
2023-04-10T17:05:11.456Z,10.70
2023-04-10T17:07:38.679Z,10.46
2023-04-10T17:10:06.537Z,10.49
2023-04-10T17:12:33.994Z,10.24
2023-04-10T17:15:01.391Z,10.17
2023-04-10T17:17:28.820Z,9.98
2023-04-10T17:19:56.647Z,9.85
2023-04-10T17:22:24.037Z,9.68
2023-04-10T17:24:51.404Z,9.65
2023-04-10T17:27:19.050Z,9.71
2023-04-10T17:29:46.355Z,9.62
2023-04-10T17:32:13.894Z,9.47
2023-04-10T17:34:41.222Z,9.44
2023-04-10T17:37:08.571Z,9.47
2023-04-10T17:39:35.873Z,9.47
2023-04-10T17:42:03.424Z,9.57
2023-04-10T17:44:31.407Z,9.61
2023-04-10T17:46:58.840Z,9.51
2023-04-10T17:49:26.548Z,9.50
2023-04-10T17:51:53.884Z,9.68
2023-04-10T17:54:21.051Z,9.80
2023-04-10T17:56:48.490Z,9.70
2023-04-10T17:59:15.774Z,9.62
2023-04-10T18:01:43.204Z,9.61
2023-04-10T18:04:10.861Z,9.62
2023-04-10T18:06:38.234Z,9.58
2023-04-10T18:09:06.024Z,9.58
2023-04-10T18:11:33.365Z,9.51
2023-04-10T18:14:00.660Z,9.42
2023-04-10T18:16:27.948Z,9.47
2023-04-10T18:18:55.619Z,9.45
2023-04-10T18:21:23.263Z,9.49
2023-04-10T18:23:50.554Z,9.56
2023-04-10T18:26:21.030Z,9.60
2023-04-10T18:28:48.480Z,9.69
2023-04-10T18:31:16.808Z,9.90
2023-04-10T18:33:45.468Z,9.89
2023-04-10T18:36:14.220Z,9.99
2023-04-10T18:38:43.921Z,9.99
2023-04-10T18:41:11.442Z,9.99
2023-04-10T18:43:39.211Z,9.73
2023-04-10T18:46:07.117Z,9.45
2023-04-10T18:48:36.074Z,9.51
2023-04-10T18:51:03.533Z,9.54
2023-04-10T18:53:31.090Z,9.38
2023-04-10T18:55:58.507Z,9.32
2023-04-10T18:58:25.987Z,9.09
2023-04-10T19:00:54.284Z,8.88
2023-04-10T19:03:21.577Z,8.69
2023-04-10T19:05:48.948Z,8.63
2023-04-10T19:08:17.210Z,8.61
2023-04-10T19:10:44.523Z,8.80
2023-04-10T19:13:12.925Z,8.67
2023-04-10T19:15:47.912Z,8.62
2023-04-10T19:18:16.527Z,8.61
2023-04-10T19:20:52.049Z,8.52
2023-04-10T19:23:20.911Z,8.64
2023-04-10T19:25:55.253Z,8.72
2023-04-10T19:28:24.589Z,8.71
2023-04-10T19:30:52.812Z,8.31
2023-04-10T19:33:20.616Z,8.07
2023-04-10T19:35:47.981Z,8.23
2023-04-10T19:38:15.264Z,8.18
2023-04-10T19:40:44.426Z,8.18
2023-04-10T19:43:12.464Z,8.21
2023-04-10T19:45:40.487Z,8.26
2023-04-10T19:48:09.657Z,8.25
2023-04-10T19:50:37.262Z,8.22
2023-04-10T19:53:05.228Z,8.06
2023-04-10T19:55:32.836Z,7.92
2023-04-10T19:58:00.330Z,7.78
2023-04-10T20:00:27.614Z,7.85
2023-04-10T20:02:55.190Z,7.89
2023-04-10T20:05:22.613Z,7.95
2023-04-10T20:07:50.486Z,7.87
2023-04-10T20:10:17.785Z,7.97
2023-04-10T20:12:45.430Z,8.05
2023-04-10T20:15:12.979Z,7.94
2023-04-10T20:17:40.877Z,7.82
2023-04-10T20:20:09.172Z,7.71
2023-04-10T20:22:36.565Z,7.60
2023-04-10T20:25:04.074Z,7.48
2023-04-10T20:27:31.539Z,7.43
2023-04-10T20:29:58.802Z,7.37
2023-04-10T20:32:26.113Z,7.28
2023-04-10T20:34:53.303Z,7.17
2023-04-10T20:37:22.021Z,7.08
2023-04-10T20:39:49.749Z,7.16
2023-04-10T20:42:17.246Z,7.23
2023-04-10T20:44:44.574Z,7.35
2023-04-10T20:47:11.896Z,7.52
2023-04-10T20:49:39.300Z,7.71
2023-04-10T20:52:07.264Z,7.70
2023-04-10T20:54:34.681Z,7.90
2023-04-10T20:57:02.097Z,7.99
2023-04-10T20:59:33.505Z,8.06
2023-04-10T21:02:01.103Z,8.13
2023-04-10T21:04:28.542Z,8.26
2023-04-10T21:06:55.922Z,8.40
2023-04-10T21:09:23.146Z,8.36
2023-04-10T21:11:50.426Z,8.37
2023-04-10T21:14:17.618Z,8.33
2023-04-10T21:16:46.031Z,8.43
2023-04-10T21:19:14.117Z,8.35
2023-04-10T21:21:41.436Z,8.44
2023-04-10T21:24:08.728Z,8.49
2023-04-10T21:26:35.908Z,8.40
2023-04-10T21:29:03.197Z,8.23
2023-04-10T21:31:30.785Z,8.10
2023-04-10T21:33:58.024Z,7.90
2023-04-10T21:36:26.604Z,7.76
2023-04-10T21:38:54.087Z,7.63
2023-04-10T21:41:21.783Z,7.57
2023-04-10T21:43:49.170Z,7.48
2023-04-10T21:46:16.534Z,7.27
2023-04-10T21:48:43.915Z,7.29
2023-04-10T21:51:11.162Z,7.25
2023-04-10T21:53:38.404Z,7.15
2023-04-10T21:56:06.108Z,7.08
2023-04-10T21:58:33.413Z,7.00
2023-04-10T22:01:01.222Z,6.77
2023-04-10T22:03:28.783Z,6.65
2023-04-10T22:05:56.082Z,6.67
2023-04-10T22:08:23.369Z,6.82
2023-04-10T22:10:51.058Z,6.82
2023-04-10T22:13:30.308Z,6.87
2023-04-10T22:15:59.982Z,6.92
2023-04-10T22:18:27.298Z,6.93
2023-04-10T22:20:54.536Z,7.01
2023-04-10T22:23:21.762Z,6.96
2023-04-10T22:25:49.059Z,6.82
2023-04-10T22:28:16.232Z,6.74
2023-04-10T22:30:43.435Z,7.12
2023-04-10T22:33:12.066Z,7.10
2023-04-10T22:35:39.407Z,6.80
2023-04-10T22:38:07.824Z,6.44
2023-04-10T22:40:35.411Z,6.34
2023-04-10T22:43:02.738Z,6.54
2023-04-10T22:45:30.032Z,6.25
2023-04-10T22:47:57.589Z,6.15
2023-04-10T22:50:24.884Z,5.90
2023-04-10T22:52:52.293Z,5.84
2023-04-10T22:55:19.712Z,5.78
2023-04-10T22:57:49.863Z,5.78
2023-04-10T23:00:17.340Z,5.83
2023-04-10T23:02:44.615Z,5.80
2023-04-10T23:05:11.879Z,5.74
2023-04-10T23:07:39.086Z,5.69
2023-04-10T23:10:07.401Z,5.71
2023-04-10T23:12:34.661Z,5.71
2023-04-10T23:15:01.833Z,5.74
2023-04-10T23:17:29.084Z,5.82
2023-04-10T23:19:56.333Z,5.95
2023-04-10T23:22:23.621Z,5.90
2023-04-10T23:24:55.057Z,5.96
2023-04-10T23:27:22.337Z,5.99
2023-04-10T23:29:50.219Z,6.04
2023-04-10T23:32:17.408Z,6.04
2023-04-10T23:34:44.685Z,5.93
2023-04-10T23:37:11.924Z,5.79
2023-04-10T23:39:39.748Z,5.75
2023-04-10T23:42:06.976Z,5.77
2023-04-10T23:44:34.321Z,5.90
2023-04-10T23:47:01.581Z,5.95
2023-04-10T23:49:29.145Z,6.00
2023-04-10T23:51:56.299Z,5.93
2023-04-10T23:54:23.556Z,5.92
2023-04-10T23:56:50.687Z,5.84
2023-04-10T23:59:19.190Z,5.65
